Tooele, UT (84074)

7:42 PM MST on December 08, 2016 (GMT -0700)
KUTERDA2 | | Change Station
Active Advisory: Winter Weather Advisory

Elev 4381 ft 40.60 °N, 112.32 °W | Updated 2 minutes ago

Overcast
Overcast
25.3 °F
Feels Like 25 °F
N
0.0
Wind Variable Wind from NW
Gusts 2.0 mph

Today
High -- | Low -- °F
--% Chance of Precip.
Yesterday
High -- | Low -- °F
Precip. -- in
Pressure 30.22 in
Visibility 10.0 miles
Clouds Mostly Cloudy 6000 ft
Mostly Cloudy 7000 ft
Overcast 9000 ft
Windchill 25 °F
Dew Point 20 °F
Humidity 82%
Rainfall 0.00 in
Snow Depth Not available.
7:40 AM 5:02 PM
Waxing Gibbous, 69% visible
METAR KSLC 090154Z 33006KT 10SM BKN060 BKN070 OVC090 M03/M05 A3014 RMK AO2 SLP234 T10281050
Pressure 30.22 in
Visibility 10.0 miles
Clouds Mostly Cloudy 6000 ft
Mostly Cloudy 7000 ft
Overcast 9000 ft
Windchill 25 °F
Dew Point 20 °F
Humidity 82%
Rainfall 0.00 in
Snow Depth Not available.
7:40 AM 5:02 PM
Waxing Gibbous, 69% visible
METAR KSLC 090154Z 33006KT 10SM BKN060 BKN070 OVC090 M03/M05 A3014 RMK AO2 SLP234 T10281050

10-Day Weather Forecast

Almanac

Astronomy

Dec. 08, 2016 Rise Set
Actual Time
Civil Twilight
Nautical Twilight
Astronomical Twilight
Moon
Length of Visible Light
Length of Day
Tomorrow will be .
, % of the Moon is Illuminated

Today's Extremes

State Highs State Lows

Community

WunderPhotos

Upload Photos

1,956,351 photos uploaded!

WunderBlog® & News

Nearby

Air Quality

  Air Quality AQ Index Pollutant
Not available.

Snow Depth

Station Depth Elevation

Earthquake Activity

City Distance Mag. Time & Date
Minimum magnitude displayed is 2.5.

Coastal Water Temperatures

Place Temperature

Stations

Nearby Weather Stations

Station Location Temp. Windchill Dew Point Humidity Wind Precip. Elev Updated Type
                   

Watches & Warnings

Winter Weather Advisory
Issued: 3:34 PM MST Dec. 8, 2016 – National Weather Service

... Winter Weather Advisory remains in effect until noon MST
Friday...

* affected area... the Rush Valley and southern and western
portions of the Salt Lake Valley. This advisory does not
include the Tooele Valley... and the immediate Salt Lake City
area.

* Snow accumulations... 2 to 4 inches.

* Timing... intermittent snow this evening will become more
continuous around midnight and prevail into Friday morning
before tapering off or changing to rain.

* Impacts... occasional winter driving conditions can be expected
across most routes in the southern portions of the Salt Lake
Valley and Rush Valley this evening but more so after midnight
into Friday.

Precautionary/preparedness actions...

A Winter Weather Advisory for snow means that snow accumulations
will cause primarily travel difficulties. Be prepared for snow
covered roads. Use caution while driving.

For winter Road conditions from the Utah Department of
Transportation... visit
http://www.Udottraffic.Utah.Gov/roadweatherforecast.Aspx or dial
511.